sensor_id;sensor_type;location;lat;lon;timestamp;temperature;humidity
37276;DHT22;23166;51.150;21.620;2022-10-31T00:00:18;7.10;99.90
37276;DHT22;23166;51.150;21.620;2022-10-31T00:02:46;7.00;99.90
37276;DHT22;23166;51.150;21.620;2022-10-31T00:05:12;7.00;99.90
37276;DHT22;23166;51.150;21.620;2022-10-31T00:07:38;7.10;99.90
37276;DHT22;23166;51.150;21.620;2022-10-31T00:10:05;7.00;99.90
37276;DHT22;23166;51.150;21.620;2022-10-31T00:12:31;7.00;99.90
37276;DHT22;23166;51.150;21.620;2022-10-31T00:14:57;7.00;99.90
37276;DHT22;23166;51.150;21.620;2022-10-31T00:17:24;7.00;99.90
37276;DHT22;23166;51.150;21.620;2022-10-31T00:19:50;6.90;99.90
37276;DHT22;23166;51.150;21.620;2022-10-31T00:22:16;6.90;99.90
37276;DHT22;23166;51.150;21.620;2022-10-31T00:24:42;6.90;99.90
37276;DHT22;23166;51.150;21.620;2022-10-31T00:27:08;7.00;99.90
37276;DHT22;23166;51.150;21.620;2022-10-31T00:29:34;7.00;99.90
37276;DHT22;23166;51.150;21.620;2022-10-31T00:32:01;7.00;99.90
37276;DHT22;23166;51.150;21.620;2022-10-31T00:34:27;7.00;99.90
37276;DHT22;23166;51.150;21.620;2022-10-31T00:36:53;7.00;99.90
37276;DHT22;23166;51.150;21.620;2022-10-31T00:39:19;7.00;99.90
37276;DHT22;23166;51.150;21.620;2022-10-31T00:41:45;7.00;99.90
37276;DHT22;23166;51.150;21.620;2022-10-31T00:44:11;7.00;99.90
37276;DHT22;23166;51.150;21.620;2022-10-31T00:46:37;7.00;99.90
37276;DHT22;23166;51.150;21.620;2022-10-31T00:49:03;7.00;99.90
37276;DHT22;23166;51.150;21.620;2022-10-31T00:51:30;7.00;99.90
37276;DHT22;23166;51.150;21.620;2022-10-31T00:53:56;7.00;99.90
37276;DHT22;23166;51.150;21.620;2022-10-31T00:56:22;7.10;99.90
37276;DHT22;23166;51.150;21.620;2022-10-31T00:58:48;7.00;99.90
37276;DHT22;23166;51.150;21.620;2022-10-31T01:01:14;7.10;99.90
37276;DHT22;23166;51.150;21.620;2022-10-31T01:03:40;7.10;99.90
37276;DHT22;23166;51.150;21.620;2022-10-31T01:06:08;7.10;99.90
37276;DHT22;23166;51.150;21.620;2022-10-31T01:08:34;7.10;99.90
37276;DHT22;23166;51.150;21.620;2022-10-31T01:11:05;7.20;99.90
37276;DHT22;23166;51.150;21.620;2022-10-31T01:13:32;7.20;99.90
37276;DHT22;23166;51.150;21.620;2022-10-31T01:15:58;7.20;99.90
37276;DHT22;23166;51.150;21.620;2022-10-31T01:18:25;7.20;99.90
37276;DHT22;23166;51.150;21.620;2022-10-31T01:23:29;7.20;99.90
37276;DHT22;23166;51.150;21.620;2022-10-31T01:28:57;7.30;99.90
37276;DHT22;23166;51.150;21.620;2022-10-31T01:31:21;7.30;99.90
37276;DHT22;23166;51.150;21.620;2022-10-31T01:33:47;7.30;99.90
37276;DHT22;23166;51.150;21.620;2022-10-31T01:36:25;7.40;99.90
37276;DHT22;23166;51.150;21.620;2022-10-31T01:38:48;7.40;99.90
37276;DHT22;23166;51.150;21.620;2022-10-31T01:41:16;7.40;99.90
37276;DHT22;23166;51.150;21.620;2022-10-31T01:43:43;7.50;99.90
37276;DHT22;23166;51.150;21.620;2022-10-31T01:46:09;7.50;99.90
37276;DHT22;23166;51.150;21.620;2022-10-31T01:48:36;7.50;99.90
37276;DHT22;23166;51.150;21.620;2022-10-31T01:51:02;7.50;99.90
37276;DHT22;23166;51.150;21.620;2022-10-31T01:53:30;7.60;99.90
37276;DHT22;23166;51.150;21.620;2022-10-31T01:55:57;7.60;99.90
37276;DHT22;23166;51.150;21.620;2022-10-31T01:58:25;7.70;99.90
37276;DHT22;23166;51.150;21.620;2022-10-31T02:00:53;7.70;99.90
37276;DHT22;23166;51.150;21.620;2022-10-31T02:03:20;7.80;99.90
37276;DHT22;23166;51.150;21.620;2022-10-31T02:05:47;7.90;99.90
37276;DHT22;23166;51.150;21.620;2022-10-31T02:10:42;8.10;99.90
37276;DHT22;23166;51.150;21.620;2022-10-31T02:13:09;8.10;99.90
37276;DHT22;23166;51.150;21.620;2022-10-31T02:15:36;8.20;99.90
37276;DHT22;23166;51.150;21.620;2022-10-31T02:18:03;8.20;99.90
37276;DHT22;23166;51.150;21.620;2022-10-31T02:20:35;8.30;99.90
37276;DHT22;23166;51.150;21.620;2022-10-31T02:31:00;8.50;99.90
37276;DHT22;23166;51.150;21.620;2022-10-31T02:33:30;8.50;99.90
37276;DHT22;23166;51.150;21.620;2022-10-31T02:40:55;8.70;99.90
37276;DHT22;23166;51.150;21.620;2022-10-31T02:43:21;8.80;99.90
37276;DHT22;23166;51.150;21.620;2022-10-31T02:45:50;8.80;99.90
37276;DHT22;23166;51.150;21.620;2022-10-31T02:48:19;8.90;99.90
37276;DHT22;23166;51.150;21.620;2022-10-31T02:50:49;8.90;99.90
37276;DHT22;23166;51.150;21.620;2022-10-31T02:53:15;8.90;99.90
37276;DHT22;23166;51.150;21.620;2022-10-31T02:55:44;9.00;99.90
37276;DHT22;23166;51.150;21.620;2022-10-31T02:58:10;9.00;99.90
37276;DHT22;23166;51.150;21.620;2022-10-31T03:00:54;9.10;99.90
37276;DHT22;23166;51.150;21.620;2022-10-31T03:03:24;9.10;99.90
37276;DHT22;23166;51.150;21.620;2022-10-31T03:06:02;9.20;99.90
37276;DHT22;23166;51.150;21.620;2022-10-31T03:11:08;9.20;99.90
37276;DHT22;23166;51.150;21.620;2022-10-31T03:13:38;9.20;99.90
37276;DHT22;23166;51.150;21.620;2022-10-31T03:16:11;9.30;99.90
37276;DHT22;23166;51.150;21.620;2022-10-31T03:18:36;9.30;99.90
37276;DHT22;23166;51.150;21.620;2022-10-31T03:21:14;9.30;99.90
37276;DHT22;23166;51.150;21.620;2022-10-31T03:23:43;9.30;99.90
37276;DHT22;23166;51.150;21.620;2022-10-31T03:26:10;9.30;99.90
37276;DHT22;23166;51.150;21.620;2022-10-31T03:28:40;9.40;99.90
37276;DHT22;23166;51.150;21.620;2022-10-31T03:31:06;9.40;99.90
37276;DHT22;23166;51.150;21.620;2022-10-31T03:33:33;9.40;99.90
37276;DHT22;23166;51.150;21.620;2022-10-31T03:36:00;9.40;99.90
37276;DHT22;23166;51.150;21.620;2022-10-31T03:38:27;9.40;99.90
37276;DHT22;23166;51.150;21.620;2022-10-31T03:40:54;9.40;99.90
37276;DHT22;23166;51.150;21.620;2022-10-31T03:43:24;9.50;99.90
37276;DHT22;23166;51.150;21.620;2022-10-31T03:45:50;9.50;99.90
37276;DHT22;23166;51.150;21.620;2022-10-31T03:48:16;9.50;99.90
37276;DHT22;23166;51.150;21.620;2022-10-31T03:53:34;9.50;99.90
37276;DHT22;23166;51.150;21.620;2022-10-31T03:56:01;9.50;99.90
37276;DHT22;23166;51.150;21.620;2022-10-31T03:58:32;9.50;99.90
37276;DHT22;23166;51.150;21.620;2022-10-31T04:00:55;9.50;99.90
37276;DHT22;23166;51.150;21.620;2022-10-31T04:03:24;9.60;99.90
37276;DHT22;23166;51.150;21.620;2022-10-31T04:05:51;9.60;99.90
37276;DHT22;23166;51.150;21.620;2022-10-31T04:08:19;9.60;99.90
37276;DHT22;23166;51.150;21.620;2022-10-31T04:10:46;9.60;99.90
37276;DHT22;23166;51.150;21.620;2022-10-31T04:13:14;9.60;99.90
37276;DHT22;23166;51.150;21.620;2022-10-31T04:15:42;9.60;99.90
37276;DHT22;23166;51.150;21.620;2022-10-31T04:18:09;9.60;99.90
37276;DHT22;23166;51.150;21.620;2022-10-31T04:20:36;9.70;99.90
37276;DHT22;23166;51.150;21.620;2022-10-31T04:23:03;9.70;99.90
37276;DHT22;23166;51.150;21.620;2022-10-31T04:25:29;9.70;99.90
37276;DHT22;23166;51.150;21.620;2022-10-31T04:27:55;9.70;99.90
37276;DHT22;23166;51.150;21.620;2022-10-31T04:30:21;9.70;99.90
37276;DHT22;23166;51.150;21.620;2022-10-31T04:32:48;9.80;99.90
37276;DHT22;23166;51.150;21.620;2022-10-31T04:35:14;9.80;99.90
37276;DHT22;23166;51.150;21.620;2022-10-31T04:37:41;9.80;99.90
37276;DHT22;23166;51.150;21.620;2022-10-31T04:40:08;9.90;99.90
37276;DHT22;23166;51.150;21.620;2022-10-31T04:42:34;9.90;99.90
37276;DHT22;23166;51.150;21.620;2022-10-31T04:45:00;9.90;99.90
37276;DHT22;23166;51.150;21.620;2022-10-31T04:47:26;9.90;99.90
37276;DHT22;23166;51.150;21.620;2022-10-31T04:49:52;9.90;99.90
37276;DHT22;23166;51.150;21.620;2022-10-31T04:52:18;9.90;99.90
37276;DHT22;23166;51.150;21.620;2022-10-31T04:54:44;9.90;99.90
37276;DHT22;23166;51.150;21.620;2022-10-31T04:57:10;10.00;99.90
37276;DHT22;23166;51.150;21.620;2022-10-31T04:59:37;10.00;99.90
37276;DHT22;23166;51.150;21.620;2022-10-31T05:02:03;10.00;99.90
37276;DHT22;23166;51.150;21.620;2022-10-31T05:04:29;10.10;99.90
37276;DHT22;23166;51.150;21.620;2022-10-31T05:06:55;10.10;99.90
37276;DHT22;23166;51.150;21.620;2022-10-31T05:09:21;10.10;99.90
37276;DHT22;23166;51.150;21.620;2022-10-31T05:11:47;10.10;99.90
37276;DHT22;23166;51.150;21.620;2022-10-31T05:14:13;10.10;99.90
37276;DHT22;23166;51.150;21.620;2022-10-31T05:16:39;10.10;99.90
37276;DHT22;23166;51.150;21.620;2022-10-31T05:19:06;10.10;99.90
37276;DHT22;23166;51.150;21.620;2022-10-31T05:21:32;10.10;99.90
37276;DHT22;23166;51.150;21.620;2022-10-31T05:23:58;10.10;99.90
37276;DHT22;23166;51.150;21.620;2022-10-31T05:26:25;10.20;99.90
37276;DHT22;23166;51.150;21.620;2022-10-31T05:28:52;10.10;99.90
37276;DHT22;23166;51.150;21.620;2022-10-31T05:31:19;10.20;99.90
37276;DHT22;23166;51.150;21.620;2022-10-31T05:33:45;10.20;99.90
37276;DHT22;23166;51.150;21.620;2022-10-31T05:36:11;10.20;99.90
37276;DHT22;23166;51.150;21.620;2022-10-31T05:38:37;10.20;99.90
37276;DHT22;23166;51.150;21.620;2022-10-31T05:41:03;10.30;99.90
37276;DHT22;23166;51.150;21.620;2022-10-31T05:43:30;10.30;99.90
37276;DHT22;23166;51.150;21.620;2022-10-31T05:45:56;10.30;99.90
37276;DHT22;23166;51.150;21.620;2022-10-31T05:48:22;10.40;99.90
37276;DHT22;23166;51.150;21.620;2022-10-31T05:50:48;10.40;99.90
37276;DHT22;23166;51.150;21.620;2022-10-31T05:53:14;10.40;99.90
37276;DHT22;23166;51.150;21.620;2022-10-31T05:55:41;10.50;99.90
37276;DHT22;23166;51.150;21.620;2022-10-31T05:58:07;10.50;99.90
37276;DHT22;23166;51.150;21.620;2022-10-31T06:00:34;10.50;99.90
37276;DHT22;23166;51.150;21.620;2022-10-31T06:03:01;10.60;99.90
37276;DHT22;23166;51.150;21.620;2022-10-31T06:05:28;10.60;99.90
37276;DHT22;23166;51.150;21.620;2022-10-31T06:07:54;10.70;99.90
37276;DHT22;23166;51.150;21.620;2022-10-31T06:10:20;10.70;99.90
37276;DHT22;23166;51.150;21.620;2022-10-31T06:12:46;10.70;99.90
37276;DHT22;23166;51.150;21.620;2022-10-31T06:15:12;10.70;99.90
37276;DHT22;23166;51.150;21.620;2022-10-31T06:17:39;10.80;99.90
37276;DHT22;23166;51.150;21.620;2022-10-31T06:20:05;10.80;99.90
37276;DHT22;23166;51.150;21.620;2022-10-31T06:22:32;10.90;99.90
37276;DHT22;23166;51.150;21.620;2022-10-31T06:24:58;10.90;99.90
37276;DHT22;23166;51.150;21.620;2022-10-31T06:27:24;10.90;99.90
37276;DHT22;23166;51.150;21.620;2022-10-31T06:29:51;11.00;99.90
37276;DHT22;23166;51.150;21.620;2022-10-31T06:32:17;11.10;99.90
37276;DHT22;23166;51.150;21.620;2022-10-31T06:34:43;11.10;99.90
37276;DHT22;23166;51.150;21.620;2022-10-31T06:37:11;11.10;99.90
37276;DHT22;23166;51.150;21.620;2022-10-31T06:39:37;11.20;99.90
37276;DHT22;23166;51.150;21.620;2022-10-31T06:42:03;11.30;99.90
37276;DHT22;23166;51.150;21.620;2022-10-31T06:44:30;11.40;99.90
37276;DHT22;23166;51.150;21.620;2022-10-31T06:46:56;11.40;99.90
37276;DHT22;23166;51.150;21.620;2022-10-31T06:49:22;11.50;99.90
37276;DHT22;23166;51.150;21.620;2022-10-31T06:51:48;11.60;99.90
37276;DHT22;23166;51.150;21.620;2022-10-31T06:54:15;11.60;99.90
37276;DHT22;23166;51.150;21.620;2022-10-31T06:56:41;11.70;99.90
37276;DHT22;23166;51.150;21.620;2022-10-31T06:59:07;11.70;99.90
37276;DHT22;23166;51.150;21.620;2022-10-31T07:01:33;11.80;99.90
37276;DHT22;23166;51.150;21.620;2022-10-31T07:04:00;11.90;99.90
37276;DHT22;23166;51.150;21.620;2022-10-31T07:06:26;12.00;99.90
37276;DHT22;23166;51.150;21.620;2022-10-31T07:08:52;12.00;99.90
37276;DHT22;23166;51.150;21.620;2022-10-31T07:11:18;12.00;99.90
37276;DHT22;23166;51.150;21.620;2022-10-31T07:13:44;12.10;99.90
37276;DHT22;23166;51.150;21.620;2022-10-31T07:16:11;12.20;99.90
37276;DHT22;23166;51.150;21.620;2022-10-31T07:18:38;12.30;99.90
37276;DHT22;23166;51.150;21.620;2022-10-31T07:21:04;12.30;99.90
37276;DHT22;23166;51.150;21.620;2022-10-31T07:23:31;12.40;99.90
37276;DHT22;23166;51.150;21.620;2022-10-31T07:25:57;12.60;99.90
37276;DHT22;23166;51.150;21.620;2022-10-31T07:28:24;12.60;99.90
37276;DHT22;23166;51.150;21.620;2022-10-31T07:30:51;12.70;99.90
37276;DHT22;23166;51.150;21.620;2022-10-31T07:33:18;12.80;99.90
37276;DHT22;23166;51.150;21.620;2022-10-31T07:35:44;12.90;99.90
37276;DHT22;23166;51.150;21.620;2022-10-31T07:38:11;13.00;99.90
37276;DHT22;23166;51.150;21.620;2022-10-31T07:40:37;13.00;99.90
37276;DHT22;23166;51.150;21.620;2022-10-31T07:43:03;13.10;99.90
37276;DHT22;23166;51.150;21.620;2022-10-31T07:45:29;13.20;99.90
37276;DHT22;23166;51.150;21.620;2022-10-31T07:47:55;13.30;99.90
37276;DHT22;23166;51.150;21.620;2022-10-31T07:50:23;13.40;99.90
37276;DHT22;23166;51.150;21.620;2022-10-31T07:55:30;13.50;99.90
37276;DHT22;23166;51.150;21.620;2022-10-31T07:58:00;13.60;99.90
37276;DHT22;23166;51.150;21.620;2022-10-31T08:00:24;13.60;99.90
37276;DHT22;23166;51.150;21.620;2022-10-31T08:03:01;13.50;99.90
37276;DHT22;23166;51.150;21.620;2022-10-31T08:05:24;13.50;99.90
37276;DHT22;23166;51.150;21.620;2022-10-31T08:07:50;13.50;99.90
37276;DHT22;23166;51.150;21.620;2022-10-31T08:10:16;13.50;99.90
37276;DHT22;23166;51.150;21.620;2022-10-31T08:12:43;13.50;99.90
37276;DHT22;23166;51.150;21.620;2022-10-31T08:15:09;13.50;99.90
37276;DHT22;23166;51.150;21.620;2022-10-31T08:17:35;13.60;99.90
37276;DHT22;23166;51.150;21.620;2022-10-31T08:20:02;13.60;99.90
37276;DHT22;23166;51.150;21.620;2022-10-31T08:22:28;13.60;99.90
37276;DHT22;23166;51.150;21.620;2022-10-31T08:24:55;13.70;99.90
37276;DHT22;23166;51.150;21.620;2022-10-31T08:27:21;13.80;99.90
37276;DHT22;23166;51.150;21.620;2022-10-31T08:29:47;13.90;99.90
37276;DHT22;23166;51.150;21.620;2022-10-31T08:32:13;13.90;99.90
37276;DHT22;23166;51.150;21.620;2022-10-31T08:34:39;14.00;99.90
37276;DHT22;23166;51.150;21.620;2022-10-31T08:37:05;14.10;99.90
37276;DHT22;23166;51.150;21.620;2022-10-31T08:39:31;14.20;99.90
37276;DHT22;23166;51.150;21.620;2022-10-31T08:41:58;14.20;99.90
37276;DHT22;23166;51.150;21.620;2022-10-31T08:44:24;14.30;99.90
37276;DHT22;23166;51.150;21.620;2022-10-31T08:46:50;14.30;99.90
37276;DHT22;23166;51.150;21.620;2022-10-31T08:49:16;14.40;99.90
37276;DHT22;23166;51.150;21.620;2022-10-31T08:51:46;14.60;99.90
37276;DHT22;23166;51.150;21.620;2022-10-31T08:54:11;14.70;99.90
37276;DHT22;23166;51.150;21.620;2022-10-31T08:56:37;14.70;99.90
37276;DHT22;23166;51.150;21.620;2022-10-31T08:59:04;14.80;99.90
37276;DHT22;23166;51.150;21.620;2022-10-31T09:01:30;14.80;99.90
37276;DHT22;23166;51.150;21.620;2022-10-31T09:03:56;14.70;99.90
37276;DHT22;23166;51.150;21.620;2022-10-31T09:06:22;14.70;99.90
37276;DHT22;23166;51.150;21.620;2022-10-31T09:08:48;14.70;99.90
37276;DHT22;23166;51.150;21.620;2022-10-31T09:11:14;14.80;99.90
37276;DHT22;23166;51.150;21.620;2022-10-31T09:13:41;14.80;99.90
37276;DHT22;23166;51.150;21.620;2022-10-31T09:16:07;14.90;99.90
37276;DHT22;23166;51.150;21.620;2022-10-31T09:18:33;15.00;99.90
37276;DHT22;23166;51.150;21.620;2022-10-31T09:21:00;15.10;99.90
37276;DHT22;23166;51.150;21.620;2022-10-31T09:23:26;15.20;99.90
37276;DHT22;23166;51.150;21.620;2022-10-31T09:25:52;15.20;99.90
37276;DHT22;23166;51.150;21.620;2022-10-31T09:28:20;15.30;99.90
37276;DHT22;23166;51.150;21.620;2022-10-31T09:30:47;15.30;99.90
37276;DHT22;23166;51.150;21.620;2022-10-31T09:33:14;15.40;99.90
37276;DHT22;23166;51.150;21.620;2022-10-31T09:35:40;15.40;99.90
37276;DHT22;23166;51.150;21.620;2022-10-31T09:38:14;15.40;99.90
37276;DHT22;23166;51.150;21.620;2022-10-31T09:40:41;15.40;99.90
37276;DHT22;23166;51.150;21.620;2022-10-31T09:50:56;15.60;99.90
37276;DHT22;23166;51.150;21.620;2022-10-31T09:53:32;15.60;99.90
37276;DHT22;23166;51.150;21.620;2022-10-31T09:55:53;15.80;99.90
37276;DHT22;23166;51.150;21.620;2022-10-31T09:58:20;15.80;99.90
37276;DHT22;23166;51.150;21.620;2022-10-31T10:00:48;15.90;99.90
37276;DHT22;23166;51.150;21.620;2022-10-31T10:03:20;15.90;99.90
37276;DHT22;23166;51.150;21.620;2022-10-31T10:05:46;15.90;99.90
37276;DHT22;23166;51.150;21.620;2022-10-31T10:08:20;15.90;99.90
37276;DHT22;23166;51.150;21.620;2022-10-31T10:10:51;15.90;99.90
37276;DHT22;23166;51.150;21.620;2022-10-31T10:20:56;16.00;99.90
37276;DHT22;23166;51.150;21.620;2022-10-31T10:25:52;15.80;99.90
37276;DHT22;23166;51.150;21.620;2022-10-31T10:28:20;15.70;99.90
37276;DHT22;23166;51.150;21.620;2022-10-31T10:30:59;15.70;99.90
37276;DHT22;23166;51.150;21.620;2022-10-31T10:33:32;15.60;99.90
37276;DHT22;23166;51.150;21.620;2022-10-31T10:36:00;15.60;99.90
37276;DHT22;23166;51.150;21.620;2022-10-31T10:40:55;15.40;99.90
37276;DHT22;23166;51.150;21.620;2022-10-31T10:43:28;15.30;99.90
37276;DHT22;23166;51.150;21.620;2022-10-31T10:48:50;15.20;99.90
37276;DHT22;23166;51.150;21.620;2022-10-31T10:51:19;15.10;99.90
37276;DHT22;23166;51.150;21.620;2022-10-31T10:58:57;15.00;99.90
37276;DHT22;23166;51.150;21.620;2022-10-31T11:01:24;15.00;99.90
37276;DHT22;23166;51.150;21.620;2022-10-31T11:03:50;14.90;99.90
37276;DHT22;23166;51.150;21.620;2022-10-31T11:06:17;14.80;99.90
37276;DHT22;23166;51.150;21.620;2022-10-31T11:08:45;14.80;99.90
37276;DHT22;23166;51.150;21.620;2022-10-31T11:11:19;14.80;99.90
37276;DHT22;23166;51.150;21.620;2022-10-31T11:13:39;14.80;99.90
37276;DHT22;23166;51.150;21.620;2022-10-31T11:16:11;14.80;99.90
37276;DHT22;23166;51.150;21.620;2022-10-31T11:18:38;14.70;99.90
37276;DHT22;23166;51.150;21.620;2022-10-31T11:21:05;14.70;99.90
37276;DHT22;23166;51.150;21.620;2022-10-31T11:23:32;14.70;99.90
37276;DHT22;23166;51.150;21.620;2022-10-31T11:25:59;14.70;99.90
37276;DHT22;23166;51.150;21.620;2022-10-31T11:28:26;14.70;99.90
37276;DHT22;23166;51.150;21.620;2022-10-31T11:30:58;14.70;99.90
37276;DHT22;23166;51.150;21.620;2022-10-31T11:33:32;14.70;99.90
37276;DHT22;23166;51.150;21.620;2022-10-31T11:35:58;14.70;99.90
37276;DHT22;23166;51.150;21.620;2022-10-31T11:38:29;14.70;99.90
37276;DHT22;23166;51.150;21.620;2022-10-31T11:40:55;14.70;99.90
37276;DHT22;23166;51.150;21.620;2022-10-31T11:43:21;14.80;99.90
37276;DHT22;23166;51.150;21.620;2022-10-31T11:45:48;14.80;99.90
37276;DHT22;23166;51.150;21.620;2022-10-31T11:48:18;14.80;99.90
37276;DHT22;23166;51.150;21.620;2022-10-31T11:50:46;14.80;99.90
37276;DHT22;23166;51.150;21.620;2022-10-31T11:53:14;14.90;99.90
37276;DHT22;23166;51.150;21.620;2022-10-31T11:55:41;14.90;99.90
37276;DHT22;23166;51.150;21.620;2022-10-31T11:58:20;14.90;99.90
37276;DHT22;23166;51.150;21.620;2022-10-31T12:00:50;14.90;99.90
37276;DHT22;23166;51.150;21.620;2022-10-31T12:05:57;14.80;99.90
37276;DHT22;23166;51.150;21.620;2022-10-31T12:08:19;14.80;99.90
37276;DHT22;23166;51.150;21.620;2022-10-31T12:15:52;14.90;99.90
37276;DHT22;23166;51.150;21.620;2022-10-31T12:20:54;15.00;99.90
37276;DHT22;23166;51.150;21.620;2022-10-31T12:23:46;15.00;99.90
37276;DHT22;23166;51.150;21.620;2022-10-31T12:26:03;15.00;99.90
37276;DHT22;23166;51.150;21.620;2022-10-31T12:31:01;15.00;99.90
37276;DHT22;23166;51.150;21.620;2022-10-31T12:36:04;14.90;99.90
37276;DHT22;23166;51.150;21.620;2022-10-31T12:38:33;14.90;99.90
37276;DHT22;23166;51.150;21.620;2022-10-31T12:46:01;14.80;99.90
37276;DHT22;23166;51.150;21.620;2022-10-31T12:56:51;14.60;99.90
37276;DHT22;23166;51.150;21.620;2022-10-31T13:01:56;14.60;99.90
37276;DHT22;23166;51.150;21.620;2022-10-31T13:07:15;14.50;99.90
37276;DHT22;23166;51.150;21.620;2022-10-31T13:12:17;14.40;99.90
37276;DHT22;23166;51.150;21.620;2022-10-31T13:14:45;14.40;99.90
37276;DHT22;23166;51.150;21.620;2022-10-31T13:17:18;14.40;99.90
37276;DHT22;23166;51.150;21.620;2022-10-31T13:19:43;14.40;99.90
37276;DHT22;23166;51.150;21.620;2022-10-31T13:22:12;14.30;99.90
37276;DHT22;23166;51.150;21.620;2022-10-31T13:24:39;14.30;99.90
37276;DHT22;23166;51.150;21.620;2022-10-31T13:27:17;14.30;99.90
37276;DHT22;23166;51.150;21.620;2022-10-31T13:29:46;14.30;99.90
37276;DHT22;23166;51.150;21.620;2022-10-31T13:32:11;14.20;99.90
37276;DHT22;23166;51.150;21.620;2022-10-31T13:34:39;14.20;99.90
37276;DHT22;23166;51.150;21.620;2022-10-31T13:37:09;14.20;99.90
37276;DHT22;23166;51.150;21.620;2022-10-31T13:44:38;14.00;99.90
37276;DHT22;23166;51.150;21.620;2022-10-31T13:47:20;14.00;99.90
37276;DHT22;23166;51.150;21.620;2022-10-31T13:54:41;13.80;99.90
37276;DHT22;23166;51.150;21.620;2022-10-31T13:57:27;13.70;99.90
37276;DHT22;23166;51.150;21.620;2022-10-31T13:59:54;13.70;99.90
37276;DHT22;23166;51.150;21.620;2022-10-31T14:02:17;13.60;99.90
37276;DHT22;23166;51.150;21.620;2022-10-31T14:04:48;13.60;99.90
37276;DHT22;23166;51.150;21.620;2022-10-31T14:07:18;13.50;99.90
37276;DHT22;23166;51.150;21.620;2022-10-31T14:12:25;13.40;99.90
37276;DHT22;23166;51.150;21.620;2022-10-31T14:14:52;13.40;99.90
37276;DHT22;23166;51.150;21.620;2022-10-31T14:17:25;13.30;99.90
37276;DHT22;23166;51.150;21.620;2022-10-31T14:22:40;13.20;99.90
37276;DHT22;23166;51.150;21.620;2022-10-31T14:27:43;13.10;99.90
37276;DHT22;23166;51.150;21.620;2022-10-31T14:30:12;13.00;99.90
37276;DHT22;23166;51.150;21.620;2022-10-31T14:32:35;13.00;99.90
37276;DHT22;23166;51.150;21.620;2022-10-31T14:35:02;13.00;99.90
37276;DHT22;23166;51.150;21.620;2022-10-31T14:40:20;12.90;99.90
37276;DHT22;23166;51.150;21.620;2022-10-31T14:51:19;12.70;99.90
37276;DHT22;23166;51.150;21.620;2022-10-31T14:53:34;12.70;99.90
37276;DHT22;23166;51.150;21.620;2022-10-31T14:56:01;12.70;99.90
37276;DHT22;23166;51.150;21.620;2022-10-31T15:01:26;12.60;99.90
37276;DHT22;23166;51.150;21.620;2022-10-31T15:03:55;12.60;99.90
37276;DHT22;23166;51.150;21.620;2022-10-31T15:06:21;12.50;99.90
37276;DHT22;23166;51.150;21.620;2022-10-31T15:08:49;12.50;99.90
37276;DHT22;23166;51.150;21.620;2022-10-31T15:11:20;12.50;99.90
37276;DHT22;23166;51.150;21.620;2022-10-31T15:16:18;12.50;99.90
37276;DHT22;23166;51.150;21.620;2022-10-31T15:18:51;12.50;99.90
37276;DHT22;23166;51.150;21.620;2022-10-31T15:21:17;12.50;99.90
37276;DHT22;23166;51.150;21.620;2022-10-31T15:23:43;12.40;99.90
37276;DHT22;23166;51.150;21.620;2022-10-31T15:26:11;12.40;99.90
37276;DHT22;23166;51.150;21.620;2022-10-31T15:28:39;12.40;99.90
37276;DHT22;23166;51.150;21.620;2022-10-31T15:31:13;12.40;99.90
37276;DHT22;23166;51.150;21.620;2022-10-31T15:33:40;12.40;99.90
37276;DHT22;23166;51.150;21.620;2022-10-31T15:36:17;12.30;99.90
37276;DHT22;23166;51.150;21.620;2022-10-31T15:38:34;12.30;99.90
37276;DHT22;23166;51.150;21.620;2022-10-31T15:41:04;12.30;99.90
37276;DHT22;23166;51.150;21.620;2022-10-31T15:43:37;12.30;99.90
37276;DHT22;23166;51.150;21.620;2022-10-31T15:46:06;12.30;99.90
37276;DHT22;23166;51.150;21.620;2022-10-31T15:48:32;12.30;99.90
37276;DHT22;23166;51.150;21.620;2022-10-31T15:51:00;12.30;99.90
37276;DHT22;23166;51.150;21.620;2022-10-31T15:56:09;12.30;99.90
37276;DHT22;23166;51.150;21.620;2022-10-31T15:58:41;12.30;99.90
37276;DHT22;23166;51.150;21.620;2022-10-31T16:01:04;12.30;99.90
37276;DHT22;23166;51.150;21.620;2022-10-31T16:03:32;12.30;99.90
37276;DHT22;23166;51.150;21.620;2022-10-31T16:05:59;12.30;99.90
37276;DHT22;23166;51.150;21.620;2022-10-31T16:10:53;12.20;99.90
37276;DHT22;23166;51.150;21.620;2022-10-31T16:13:22;12.20;99.90
37276;DHT22;23166;51.150;21.620;2022-10-31T16:15:49;12.20;99.90
37276;DHT22;23166;51.150;21.620;2022-10-31T16:18:16;12.20;99.90
37276;DHT22;23166;51.150;21.620;2022-10-31T16:20:47;12.20;99.90
37276;DHT22;23166;51.150;21.620;2022-10-31T16:23:13;12.20;99.90
37276;DHT22;23166;51.150;21.620;2022-10-31T16:25:41;12.10;99.90
37276;DHT22;23166;51.150;21.620;2022-10-31T16:30:53;12.10;99.90
37276;DHT22;23166;51.150;21.620;2022-10-31T16:33:20;12.10;99.90
37276;DHT22;23166;51.150;21.620;2022-10-31T16:35:47;12.10;99.90
37276;DHT22;23166;51.150;21.620;2022-10-31T16:38:14;12.10;99.90
37276;DHT22;23166;51.150;21.620;2022-10-31T16:40:40;12.00;99.90
37276;DHT22;23166;51.150;21.620;2022-10-31T16:43:11;12.00;99.90
37276;DHT22;23166;51.150;21.620;2022-10-31T16:45:39;12.00;99.90
37276;DHT22;23166;51.150;21.620;2022-10-31T16:48:08;12.00;99.90
37276;DHT22;23166;51.150;21.620;2022-10-31T16:50:33;12.00;99.90
37276;DHT22;23166;51.150;21.620;2022-10-31T16:53:01;12.00;99.90
37276;DHT22;23166;51.150;21.620;2022-10-31T16:55:29;12.00;99.90
37276;DHT22;23166;51.150;21.620;2022-10-31T16:57:57;12.00;99.90
37276;DHT22;23166;51.150;21.620;2022-10-31T17:00:25;11.90;99.90
37276;DHT22;23166;51.150;21.620;2022-10-31T17:02:53;12.00;99.90
37276;DHT22;23166;51.150;21.620;2022-10-31T17:05:20;12.00;99.90
37276;DHT22;23166;51.150;21.620;2022-10-31T17:07:47;11.90;99.90
37276;DHT22;23166;51.150;21.620;2022-10-31T17:10:13;12.00;99.90
37276;DHT22;23166;51.150;21.620;2022-10-31T17:12:41;11.90;99.90
37276;DHT22;23166;51.150;21.620;2022-10-31T17:15:21;11.90;99.90
37276;DHT22;23166;51.150;21.620;2022-10-31T17:17:48;11.90;99.90
37276;DHT22;23166;51.150;21.620;2022-10-31T17:20:33;11.90;99.90
37276;DHT22;23166;51.150;21.620;2022-10-31T17:22:45;11.90;99.90
37276;DHT22;23166;51.150;21.620;2022-10-31T17:25:13;11.90;99.90
37276;DHT22;23166;51.150;21.620;2022-10-31T17:27:40;11.90;99.90
37276;DHT22;23166;51.150;21.620;2022-10-31T17:30:06;11.90;99.90
37276;DHT22;23166;51.150;21.620;2022-10-31T17:32:32;11.90;99.90
37276;DHT22;23166;51.150;21.620;2022-10-31T17:34:58;11.90;99.90
37276;DHT22;23166;51.150;21.620;2022-10-31T17:37:24;11.90;99.90